Westchester, New York
Current Conditions -  °F | °C
As of 3:51 PM on Sunday 23 Nov 2014 (Local Time) from KLGA Reporting Station
Broken Clouds Broken Clouds  
Wind Chill: 53°   Ceiling: 25000
Heat Index: 53°   Visibility: 10mi
Dew Point: 28°   Wind: 6mph
Humidity: 38%   Direction: NA
Pressure: 30.13"   Gusts: NA
Location:  40.8469°N, 73.8398°W
Report Text: KLGA 232051Z VRB05KT 10SM FEW070 SCT110 BKN250 12/M02 A3013 RMK AO2 SLP202 T01171022 58002
Loading
Personal Weather Stations






























Interactive Weather Map New forecast layout! Learn more

10-Day Weather Forecast

Advertisements
Track Severe Weather on mobile